Terminal Aerodrome Forecast
Issued by NWS

Home | Current Version | Previous Version | Text Only | Print | Product List | Glossary On
Versions: 1 2 3 4 5 6 7 8 9 10 11 12 13 14 15 16 17 18 19 20 21 22 23 24 25 26 27 28 29 30 31 32 33 34 35 36 37 38
000
FTUS43 KLOT 012300
TAFORD
TAF
KORD 012322Z 0200/0306 18008KT P6SM FEW040 BKN200
     FM020130 VRB04KT P6SM SCT200
     FM021600 05008KT P6SM SCT050
     FM030130 10004KT P6SM SKC=

USA.gov is the U.S. government's official web portal to all federal, state and local government web resources and services.